Spring Valley, Illinois
Current Conditions -  °F | °C
As of 10:15 AM on Tuesday 21 Oct 2014 (Local Time) from KVYS Reporting Station
Scattered Clouds Scattered Clouds  
Wind Chill: 52°   Ceiling: Unl
Heat Index: 52°   Visibility: 10mi
Dew Point: 38°   Wind: 15mph
Humidity: 60%   Direction: 30°NNE
Pressure: 30.18"   Gusts: NA
Location:  41.33°N, 89.2°W
Report Text: KVYS 211515Z AUTO 03013KT 10SM SCT028 11/04 A3018 RMK AO2 T01120036
Loading
Personal Weather Stations






























Interactive Weather Map
Tropical Storm Tracking
New forecast layout! Learn more

10-Day Weather Forecast

Advertisements
Track Severe Weather on mobile